sensor_id;sensor_type;location;lat;lon;timestamp;temperature;humidity
1988;DHT22;12775;46.994;15.498;2023-02-15T00:00:41;2.50;89.00
1988;DHT22;12775;46.994;15.498;2023-02-15T00:03:09;2.60;89.30
1988;DHT22;12775;46.994;15.498;2023-02-15T00:05:36;2.70;90.00
1988;DHT22;12775;46.994;15.498;2023-02-15T00:08:04;2.60;90.00
1988;DHT22;12775;46.994;15.498;2023-02-15T00:10:31;2.70;90.10
1988;DHT22;12775;46.994;15.498;2023-02-15T00:12:59;2.70;90.10
1988;DHT22;12775;46.994;15.498;2023-02-15T00:15:26;2.80;90.40
1988;DHT22;12775;46.994;15.498;2023-02-15T00:17:53;2.80;90.50
1988;DHT22;12775;46.994;15.498;2023-02-15T00:20:21;2.90;90.60
1988;DHT22;12775;46.994;15.498;2023-02-15T00:22:49;2.90;90.60
1988;DHT22;12775;46.994;15.498;2023-02-15T00:25:16;2.90;90.70
1988;DHT22;12775;46.994;15.498;2023-02-15T00:27:43;3.00;91.00
1988;DHT22;12775;46.994;15.498;2023-02-15T00:30:11;3.00;91.00
1988;DHT22;12775;46.994;15.498;2023-02-15T00:32:39;3.00;91.40
1988;DHT22;12775;46.994;15.498;2023-02-15T00:35:06;3.00;90.90
1988;DHT22;12775;46.994;15.498;2023-02-15T00:37:34;3.10;91.70
1988;DHT22;12775;46.994;15.498;2023-02-15T00:40:01;3.10;91.50
1988;DHT22;12775;46.994;15.498;2023-02-15T00:42:29;3.20;91.40
1988;DHT22;12775;46.994;15.498;2023-02-15T00:44:56;3.20;91.60
1988;DHT22;12775;46.994;15.498;2023-02-15T00:47:23;3.20;91.60
1988;DHT22;12775;46.994;15.498;2023-02-15T00:49:51;3.30;91.40
1988;DHT22;12775;46.994;15.498;2023-02-15T00:52:18;3.30;91.60
1988;DHT22;12775;46.994;15.498;2023-02-15T00:54:45;3.30;91.40
1988;DHT22;12775;46.994;15.498;2023-02-15T00:57:13;3.40;91.40
1988;DHT22;12775;46.994;15.498;2023-02-15T00:59:39;3.30;91.40
1988;DHT22;12775;46.994;15.498;2023-02-15T01:02:06;3.40;91.30
1988;DHT22;12775;46.994;15.498;2023-02-15T01:04:33;3.50;91.70
1988;DHT22;12775;46.994;15.498;2023-02-15T01:06:59;3.50;91.60
1988;DHT22;12775;46.994;15.498;2023-02-15T01:09:26;3.50;91.50
1988;DHT22;12775;46.994;15.498;2023-02-15T01:11:53;3.60;91.30
1988;DHT22;12775;46.994;15.498;2023-02-15T01:14:20;3.70;91.20
1988;DHT22;12775;46.994;15.498;2023-02-15T01:16:48;3.70;91.40
1988;DHT22;12775;46.994;15.498;2023-02-15T01:19:15;3.70;91.30
1988;DHT22;12775;46.994;15.498;2023-02-15T01:21:42;3.80;91.30
1988;DHT22;12775;46.994;15.498;2023-02-15T01:24:12;3.70;91.20
1988;DHT22;12775;46.994;15.498;2023-02-15T01:26:38;3.80;91.30
1988;DHT22;12775;46.994;15.498;2023-02-15T01:29:05;3.80;91.40
1988;DHT22;12775;46.994;15.498;2023-02-15T01:31:32;3.90;91.30
1988;DHT22;12775;46.994;15.498;2023-02-15T01:33:58;3.90;91.20
1988;DHT22;12775;46.994;15.498;2023-02-15T01:36:25;4.00;91.30
1988;DHT22;12775;46.994;15.498;2023-02-15T01:38:51;4.00;91.40
1988;DHT22;12775;46.994;15.498;2023-02-15T01:41:18;4.10;91.40
1988;DHT22;12775;46.994;15.498;2023-02-15T01:43:50;4.10;91.10
1988;DHT22;12775;46.994;15.498;2023-02-15T01:46:15;4.10;91.00
1988;DHT22;12775;46.994;15.498;2023-02-15T01:48:47;4.10;91.30
1988;DHT22;12775;46.994;15.498;2023-02-15T01:51:14;4.20;90.90
1988;DHT22;12775;46.994;15.498;2023-02-15T01:53:43;4.10;90.80
1988;DHT22;12775;46.994;15.498;2023-02-15T01:56:11;4.30;91.20
1988;DHT22;12775;46.994;15.498;2023-02-15T01:58:38;4.20;91.30
1988;DHT22;12775;46.994;15.498;2023-02-15T02:01:05;4.30;91.50
1988;DHT22;12775;46.994;15.498;2023-02-15T02:03:42;4.30;91.30
1988;DHT22;12775;46.994;15.498;2023-02-15T02:06:06;4.30;91.50
1988;DHT22;12775;46.994;15.498;2023-02-15T02:08:33;4.30;91.30
1988;DHT22;12775;46.994;15.498;2023-02-15T02:11:00;4.30;91.30
1988;DHT22;12775;46.994;15.498;2023-02-15T02:13:26;4.40;91.40
1988;DHT22;12775;46.994;15.498;2023-02-15T02:16:10;4.40;91.60
1988;DHT22;12775;46.994;15.498;2023-02-15T02:18:47;4.40;91.60
1988;DHT22;12775;46.994;15.498;2023-02-15T02:21:23;4.40;91.30
1988;DHT22;12775;46.994;15.498;2023-02-15T02:24:23;4.40;91.20
1988;DHT22;12775;46.994;15.498;2023-02-15T02:27:02;4.50;91.10
1988;DHT22;12775;46.994;15.498;2023-02-15T02:29:33;4.50;91.30
1988;DHT22;12775;46.994;15.498;2023-02-15T02:34:42;4.50;91.30
1988;DHT22;12775;46.994;15.498;2023-02-15T02:37:24;4.60;91.10
1988;DHT22;12775;46.994;15.498;2023-02-15T02:39:55;4.60;90.80
1988;DHT22;12775;46.994;15.498;2023-02-15T02:42:36;4.50;90.80
1988;DHT22;12775;46.994;15.498;2023-02-15T02:45:04;4.60;91.10
1988;DHT22;12775;46.994;15.498;2023-02-15T02:47:46;4.60;91.10
1988;DHT22;12775;46.994;15.498;2023-02-15T02:50:14;4.60;91.20
1988;DHT22;12775;46.994;15.498;2023-02-15T02:52:43;4.70;91.70
1988;DHT22;12775;46.994;15.498;2023-02-15T02:55:15;4.70;91.70
1988;DHT22;12775;46.994;15.498;2023-02-15T02:57:43;4.70;91.60
1988;DHT22;12775;46.994;15.498;2023-02-15T03:00:08;4.70;91.50
1988;DHT22;12775;46.994;15.498;2023-02-15T03:02:37;4.80;91.40
1988;DHT22;12775;46.994;15.498;2023-02-15T03:05:05;4.80;91.60
1988;DHT22;12775;46.994;15.498;2023-02-15T03:07:30;4.70;91.60
1988;DHT22;12775;46.994;15.498;2023-02-15T03:09:58;4.80;91.80
1988;DHT22;12775;46.994;15.498;2023-02-15T03:12:31;4.70;91.80
1988;DHT22;12775;46.994;15.498;2023-02-15T03:15:01;4.70;91.80
1988;DHT22;12775;46.994;15.498;2023-02-15T03:17:26;4.70;91.80
1988;DHT22;12775;46.994;15.498;2023-02-15T03:22:25;4.70;91.90
1988;DHT22;12775;46.994;15.498;2023-02-15T03:24:58;4.70;92.00
1988;DHT22;12775;46.994;15.498;2023-02-15T03:27:24;4.80;92.10
1988;DHT22;12775;46.994;15.498;2023-02-15T03:29:54;4.70;92.20
1988;DHT22;12775;46.994;15.498;2023-02-15T03:32:19;4.70;92.30
1988;DHT22;12775;46.994;15.498;2023-02-15T03:34:47;4.70;92.30
1988;DHT22;12775;46.994;15.498;2023-02-15T03:37:36;4.70;92.30
1988;DHT22;12775;46.994;15.498;2023-02-15T03:40:11;4.70;92.20
1988;DHT22;12775;46.994;15.498;2023-02-15T03:42:43;4.60;92.10
1988;DHT22;12775;46.994;15.498;2023-02-15T03:45:11;4.70;92.20
1988;DHT22;12775;46.994;15.498;2023-02-15T03:47:39;4.70;92.00
1988;DHT22;12775;46.994;15.498;2023-02-15T03:50:07;4.70;91.90
1988;DHT22;12775;46.994;15.498;2023-02-15T03:52:33;4.70;92.10
1988;DHT22;12775;46.994;15.498;2023-02-15T03:55:00;4.60;92.00
1988;DHT22;12775;46.994;15.498;2023-02-15T03:57:28;4.60;92.00
1988;DHT22;12775;46.994;15.498;2023-02-15T04:00:02;4.60;92.20
1988;DHT22;12775;46.994;15.498;2023-02-15T04:02:37;4.50;92.10
1988;DHT22;12775;46.994;15.498;2023-02-15T04:05:02;4.40;92.30
1988;DHT22;12775;46.994;15.498;2023-02-15T04:07:29;4.40;92.50
1988;DHT22;12775;46.994;15.498;2023-02-15T04:09:56;4.50;92.40
1988;DHT22;12775;46.994;15.498;2023-02-15T04:12:30;4.50;92.40
1988;DHT22;12775;46.994;15.498;2023-02-15T04:14:57;4.50;92.20
1988;DHT22;12775;46.994;15.498;2023-02-15T04:17:30;4.50;92.30
1988;DHT22;12775;46.994;15.498;2023-02-15T04:19:57;4.50;92.30
1988;DHT22;12775;46.994;15.498;2023-02-15T04:22:30;4.50;92.20
1988;DHT22;12775;46.994;15.498;2023-02-15T04:25:04;4.50;92.10
1988;DHT22;12775;46.994;15.498;2023-02-15T04:27:40;4.50;92.10
1988;DHT22;12775;46.994;15.498;2023-02-15T04:30:07;4.50;92.20
1988;DHT22;12775;46.994;15.498;2023-02-15T04:32:33;4.40;92.20
1988;DHT22;12775;46.994;15.498;2023-02-15T04:35:00;4.50;92.30
1988;DHT22;12775;46.994;15.498;2023-02-15T04:37:27;4.50;92.10
1988;DHT22;12775;46.994;15.498;2023-02-15T04:39:53;4.50;92.10
1988;DHT22;12775;46.994;15.498;2023-02-15T04:42:20;4.50;92.30
1988;DHT22;12775;46.994;15.498;2023-02-15T04:44:46;4.50;92.50
1988;DHT22;12775;46.994;15.498;2023-02-15T04:47:14;4.40;92.60
1988;DHT22;12775;46.994;15.498;2023-02-15T04:49:40;4.40;92.50
1988;DHT22;12775;46.994;15.498;2023-02-15T04:52:07;4.40;92.50
1988;DHT22;12775;46.994;15.498;2023-02-15T04:54:34;4.40;92.60
1988;DHT22;12775;46.994;15.498;2023-02-15T04:57:01;4.20;93.10
1988;DHT22;12775;46.994;15.498;2023-02-15T04:59:28;4.20;93.10
1988;DHT22;12775;46.994;15.498;2023-02-15T05:01:55;4.10;93.40
1988;DHT22;12775;46.994;15.498;2023-02-15T05:04:22;4.00;93.50
1988;DHT22;12775;46.994;15.498;2023-02-15T05:06:50;4.10;93.60
1988;DHT22;12775;46.994;15.498;2023-02-15T05:09:16;4.00;93.60
1988;DHT22;12775;46.994;15.498;2023-02-15T05:11:44;4.10;93.90
1988;DHT22;12775;46.994;15.498;2023-02-15T05:14:10;4.10;93.90
1988;DHT22;12775;46.994;15.498;2023-02-15T05:16:37;4.10;94.00
1988;DHT22;12775;46.994;15.498;2023-02-15T05:19:05;4.10;94.10
1988;DHT22;12775;46.994;15.498;2023-02-15T05:21:32;4.10;94.20
1988;DHT22;12775;46.994;15.498;2023-02-15T05:23:59;4.20;94.30
1988;DHT22;12775;46.994;15.498;2023-02-15T05:26:27;4.20;94.30
1988;DHT22;12775;46.994;15.498;2023-02-15T05:29:00;4.30;94.10
1988;DHT22;12775;46.994;15.498;2023-02-15T05:31:27;4.30;93.80
1988;DHT22;12775;46.994;15.498;2023-02-15T05:33:54;4.40;93.80
1988;DHT22;12775;46.994;15.498;2023-02-15T05:36:22;4.40;93.90
1988;DHT22;12775;46.994;15.498;2023-02-15T05:38:49;4.50;93.90
1988;DHT22;12775;46.994;15.498;2023-02-15T05:41:17;4.50;93.80
1988;DHT22;12775;46.994;15.498;2023-02-15T05:43:44;4.50;93.80
1988;DHT22;12775;46.994;15.498;2023-02-15T05:46:11;4.50;93.80
1988;DHT22;12775;46.994;15.498;2023-02-15T05:48:39;4.50;94.10
1988;DHT22;12775;46.994;15.498;2023-02-15T05:51:09;4.50;94.10
1988;DHT22;12775;46.994;15.498;2023-02-15T05:53:36;4.50;94.20
1988;DHT22;12775;46.994;15.498;2023-02-15T05:56:03;4.50;94.30
1988;DHT22;12775;46.994;15.498;2023-02-15T05:58:31;4.50;94.30
1988;DHT22;12775;46.994;15.498;2023-02-15T06:00:58;4.50;94.10
1988;DHT22;12775;46.994;15.498;2023-02-15T06:03:25;4.50;94.60
1988;DHT22;12775;46.994;15.498;2023-02-15T06:05:53;4.60;94.40
1988;DHT22;12775;46.994;15.498;2023-02-15T06:08:20;4.60;94.40
1988;DHT22;12775;46.994;15.498;2023-02-15T06:10:47;4.60;94.20
1988;DHT22;12775;46.994;15.498;2023-02-15T06:13:15;4.50;94.30
1988;DHT22;12775;46.994;15.498;2023-02-15T06:15:42;4.40;94.60
1988;DHT22;12775;46.994;15.498;2023-02-15T06:18:09;4.40;94.70
1988;DHT22;12775;46.994;15.498;2023-02-15T06:20:37;4.40;94.70
1988;DHT22;12775;46.994;15.498;2023-02-15T06:23:03;4.40;94.70
1988;DHT22;12775;46.994;15.498;2023-02-15T06:25:31;4.50;94.60
1988;DHT22;12775;46.994;15.498;2023-02-15T06:27:58;4.40;94.40
1988;DHT22;12775;46.994;15.498;2023-02-15T06:30:26;4.50;94.50
1988;DHT22;12775;46.994;15.498;2023-02-15T06:32:53;4.30;94.70
1988;DHT22;12775;46.994;15.498;2023-02-15T06:35:20;4.40;94.70
1988;DHT22;12775;46.994;15.498;2023-02-15T06:37:48;4.30;94.70
1988;DHT22;12775;46.994;15.498;2023-02-15T06:40:15;4.40;94.70
1988;DHT22;12775;46.994;15.498;2023-02-15T06:42:43;4.30;94.50
1988;DHT22;12775;46.994;15.498;2023-02-15T06:45:10;4.40;94.60
1988;DHT22;12775;46.994;15.498;2023-02-15T06:47:37;4.40;94.60
1988;DHT22;12775;46.994;15.498;2023-02-15T06:50:06;4.40;94.50
1988;DHT22;12775;46.994;15.498;2023-02-15T06:52:33;4.40;94.70
1988;DHT22;12775;46.994;15.498;2023-02-15T06:55:00;4.40;94.80
1988;DHT22;12775;46.994;15.498;2023-02-15T06:57:28;4.30;95.10
1988;DHT22;12775;46.994;15.498;2023-02-15T06:59:56;4.40;95.00
1988;DHT22;12775;46.994;15.498;2023-02-15T07:02:23;4.40;94.90
1988;DHT22;12775;46.994;15.498;2023-02-15T07:04:50;4.40;94.90
1988;DHT22;12775;46.994;15.498;2023-02-15T07:07:18;4.40;94.70
1988;DHT22;12775;46.994;15.498;2023-02-15T07:09:45;4.40;94.90
1988;DHT22;12775;46.994;15.498;2023-02-15T07:12:12;4.40;94.80
1988;DHT22;12775;46.994;15.498;2023-02-15T07:14:46;4.50;94.90
1988;DHT22;12775;46.994;15.498;2023-02-15T07:17:13;4.40;95.70
1988;DHT22;12775;46.994;15.498;2023-02-15T07:19:40;4.20;96.00
1988;DHT22;12775;46.994;15.498;2023-02-15T07:22:08;4.20;96.90
1988;DHT22;12775;46.994;15.498;2023-02-15T07:24:35;4.20;96.80
1988;DHT22;12775;46.994;15.498;2023-02-15T07:27:02;4.30;96.80
1988;DHT22;12775;46.994;15.498;2023-02-15T07:29:30;4.30;96.60
1988;DHT22;12775;46.994;15.498;2023-02-15T07:31:57;4.40;96.60
1988;DHT22;12775;46.994;15.498;2023-02-15T07:34:26;4.50;96.70
1988;DHT22;12775;46.994;15.498;2023-02-15T07:36:53;4.50;96.80
1988;DHT22;12775;46.994;15.498;2023-02-15T07:39:20;4.50;96.80
1988;DHT22;12775;46.994;15.498;2023-02-15T07:41:48;4.60;96.90
1988;DHT22;12775;46.994;15.498;2023-02-15T07:44:15;4.50;97.10
1988;DHT22;12775;46.994;15.498;2023-02-15T07:46:42;4.50;97.20
1988;DHT22;12775;46.994;15.498;2023-02-15T07:49:10;4.60;97.30
1988;DHT22;12775;46.994;15.498;2023-02-15T07:51:37;4.50;97.40
1988;DHT22;12775;46.994;15.498;2023-02-15T07:54:04;4.50;97.60
1988;DHT22;12775;46.994;15.498;2023-02-15T07:56:32;4.50;97.70
1988;DHT22;12775;46.994;15.498;2023-02-15T07:58:59;4.40;98.00
1988;DHT22;12775;46.994;15.498;2023-02-15T08:01:30;4.40;98.20
1988;DHT22;12775;46.994;15.498;2023-02-15T08:03:55;4.40;98.60
1988;DHT22;12775;46.994;15.498;2023-02-15T08:06:23;4.40;98.30
1988;DHT22;12775;46.994;15.498;2023-02-15T08:08:49;4.40;98.60
1988;DHT22;12775;46.994;15.498;2023-02-15T08:11:21;4.40;98.50
1988;DHT22;12775;46.994;15.498;2023-02-15T08:13:52;4.50;98.60
1988;DHT22;12775;46.994;15.498;2023-02-15T08:16:23;4.50;98.60
1988;DHT22;12775;46.994;15.498;2023-02-15T08:18:51;4.50;98.50
1988;DHT22;12775;46.994;15.498;2023-02-15T08:21:19;4.50;98.30
1988;DHT22;12775;46.994;15.498;2023-02-15T08:23:46;4.60;98.20
1988;DHT22;12775;46.994;15.498;2023-02-15T08:26:14;4.50;98.50
1988;DHT22;12775;46.994;15.498;2023-02-15T08:28:41;4.60;98.50
1988;DHT22;12775;46.994;15.498;2023-02-15T08:31:10;4.60;98.50
1988;DHT22;12775;46.994;15.498;2023-02-15T08:33:37;4.50;98.40
1988;DHT22;12775;46.994;15.498;2023-02-15T08:36:07;4.60;98.50
1988;DHT22;12775;46.994;15.498;2023-02-15T08:38:34;4.60;98.20
1988;DHT22;12775;46.994;15.498;2023-02-15T08:41:10;4.60;98.20
1988;DHT22;12775;46.994;15.498;2023-02-15T08:43:36;4.50;98.60
1988;DHT22;12775;46.994;15.498;2023-02-15T08:46:04;4.50;98.80
1988;DHT22;12775;46.994;15.498;2023-02-15T08:48:31;4.50;98.90
1988;DHT22;12775;46.994;15.498;2023-02-15T08:51:04;4.40;98.90
1988;DHT22;12775;46.994;15.498;2023-02-15T08:53:26;4.50;99.10
1988;DHT22;12775;46.994;15.498;2023-02-15T08:55:56;4.50;99.10
1988;DHT22;12775;46.994;15.498;2023-02-15T08:58:24;4.40;99.10
1988;DHT22;12775;46.994;15.498;2023-02-15T09:00:50;4.40;99.10
1988;DHT22;12775;46.994;15.498;2023-02-15T09:03:17;4.30;99.80
1988;DHT22;12775;46.994;15.498;2023-02-15T09:05:45;4.30;99.50
1988;DHT22;12775;46.994;15.498;2023-02-15T09:08:12;4.40;99.60
1988;DHT22;12775;46.994;15.498;2023-02-15T09:10:40;4.40;99.60
1988;DHT22;12775;46.994;15.498;2023-02-15T09:13:07;4.40;99.50
1988;DHT22;12775;46.994;15.498;2023-02-15T09:15:34;4.50;99.50
1988;DHT22;12775;46.994;15.498;2023-02-15T09:18:01;4.40;99.50
1988;DHT22;12775;46.994;15.498;2023-02-15T09:20:28;4.40;99.90
1988;DHT22;12775;46.994;15.498;2023-02-15T09:22:56;4.30;99.90
1988;DHT22;12775;46.994;15.498;2023-02-15T09:25:23;4.30;99.90
1988;DHT22;12775;46.994;15.498;2023-02-15T09:27:50;4.20;99.90
1988;DHT22;12775;46.994;15.498;2023-02-15T09:30:19;4.20;99.90
1988;DHT22;12775;46.994;15.498;2023-02-15T09:32:47;4.20;99.90
1988;DHT22;12775;46.994;15.498;2023-02-15T09:35:13;4.30;99.90
1988;DHT22;12775;46.994;15.498;2023-02-15T09:37:42;4.40;99.80
1988;DHT22;12775;46.994;15.498;2023-02-15T09:40:11;4.40;99.80
1988;DHT22;12775;46.994;15.498;2023-02-15T09:42:47;4.60;99.90
1988;DHT22;12775;46.994;15.498;2023-02-15T09:45:29;4.60;99.50
1988;DHT22;12775;46.994;15.498;2023-02-15T09:50:38;4.70;99.10
1988;DHT22;12775;46.994;15.498;2023-02-15T09:53:15;4.70;99.40
1988;DHT22;12775;46.994;15.498;2023-02-15T09:55:43;4.80;99.50
1988;DHT22;12775;46.994;15.498;2023-02-15T10:09:51;4.90;99.60
1988;DHT22;12775;46.994;15.498;2023-02-15T10:12:20;5.10;99.80
1988;DHT22;12775;46.994;15.498;2023-02-15T10:17:40;5.30;98.50
1988;DHT22;12775;46.994;15.498;2023-02-15T10:20:28;5.40;98.60
1988;DHT22;12775;46.994;15.498;2023-02-15T10:23:07;5.50;98.40
1988;DHT22;12775;46.994;15.498;2023-02-15T10:25:40;5.60;98.10
1988;DHT22;12775;46.994;15.498;2023-02-15T10:28:05;5.70;98.20
1988;DHT22;12775;46.994;15.498;2023-02-15T10:30:42;5.70;97.70
1988;DHT22;12775;46.994;15.498;2023-02-15T10:33:33;5.60;97.10
1988;DHT22;12775;46.994;15.498;2023-02-15T10:36:05;5.60;96.80
1988;DHT22;12775;46.994;15.498;2023-02-15T10:38:37;5.50;97.10
1988;DHT22;12775;46.994;15.498;2023-02-15T10:41:21;5.40;97.50
1988;DHT22;12775;46.994;15.498;2023-02-15T10:44:05;5.40;97.50
1988;DHT22;12775;46.994;15.498;2023-02-15T10:46:42;5.50;97.30
1988;DHT22;12775;46.994;15.498;2023-02-15T10:49:45;5.80;97.50
1988;DHT22;12775;46.994;15.498;2023-02-15T10:52:01;5.90;97.40
1988;DHT22;12775;46.994;15.498;2023-02-15T10:54:35;5.90;97.20
1988;DHT22;12775;46.994;15.498;2023-02-15T10:57:02;5.90;97.30
1988;DHT22;12775;46.994;15.498;2023-02-15T10:59:45;5.80;97.30
1988;DHT22;12775;46.994;15.498;2023-02-15T11:02:20;5.90;97.30
1988;DHT22;12775;46.994;15.498;2023-02-15T11:04:55;6.00;97.10
1988;DHT22;12775;46.994;15.498;2023-02-15T11:07:25;6.00;97.10
1988;DHT22;12775;46.994;15.498;2023-02-15T11:09:55;6.00;97.00
1988;DHT22;12775;46.994;15.498;2023-02-15T11:12:21;5.90;96.90
1988;DHT22;12775;46.994;15.498;2023-02-15T11:14:58;6.00;96.90
1988;DHT22;12775;46.994;15.498;2023-02-15T11:17:33;6.10;96.70
1988;DHT22;12775;46.994;15.498;2023-02-15T11:20:02;6.00;96.70
1988;DHT22;12775;46.994;15.498;2023-02-15T11:22:26;6.20;96.90
1988;DHT22;12775;46.994;15.498;2023-02-15T11:24:53;6.30;96.80
1988;DHT22;12775;46.994;15.498;2023-02-15T11:27:22;6.40;96.70
1988;DHT22;12775;46.994;15.498;2023-02-15T11:29:55;6.40;96.50
1988;DHT22;12775;46.994;15.498;2023-02-15T11:32:25;6.40;96.40
1988;DHT22;12775;46.994;15.498;2023-02-15T11:35:27;6.50;96.50
1988;DHT22;12775;46.994;15.498;2023-02-15T11:38:11;6.60;96.10
1988;DHT22;12775;46.994;15.498;2023-02-15T11:40:52;6.50;96.20
1988;DHT22;12775;46.994;15.498;2023-02-15T11:43:36;6.60;96.20
1988;DHT22;12775;46.994;15.498;2023-02-15T11:46:01;6.70;95.80
1988;DHT22;12775;46.994;15.498;2023-02-15T11:48:29;6.80;95.80
1988;DHT22;12775;46.994;15.498;2023-02-15T11:50:56;6.90;96.20
1988;DHT22;12775;46.994;15.498;2023-02-15T11:53:23;7.00;95.50
1988;DHT22;12775;46.994;15.498;2023-02-15T11:55:50;7.00;95.50
1988;DHT22;12775;46.994;15.498;2023-02-15T11:58:56;7.10;94.50
1988;DHT22;12775;46.994;15.498;2023-02-15T12:01:14;7.20;94.60
1988;DHT22;12775;46.994;15.498;2023-02-15T12:03:43;7.20;94.30
1988;DHT22;12775;46.994;15.498;2023-02-15T12:06:17;7.10;94.00
1988;DHT22;12775;46.994;15.498;2023-02-15T12:08:46;7.00;93.70
1988;DHT22;12775;46.994;15.498;2023-02-15T12:11:14;7.00;93.50
1988;DHT22;12775;46.994;15.498;2023-02-15T12:13:56;7.00;93.20
1988;DHT22;12775;46.994;15.498;2023-02-15T12:16:22;7.10;94.20
1988;DHT22;12775;46.994;15.498;2023-02-15T12:18:50;7.10;94.10
1988;DHT22;12775;46.994;15.498;2023-02-15T12:21:25;7.10;93.80
1988;DHT22;12775;46.994;15.498;2023-02-15T12:23:52;7.00;93.40
1988;DHT22;12775;46.994;15.498;2023-02-15T12:26:27;7.00;93.30
1988;DHT22;12775;46.994;15.498;2023-02-15T12:28:54;6.50;94.10
1988;DHT22;12775;46.994;15.498;2023-02-15T12:31:23;6.70;94.10
1988;DHT22;12775;46.994;15.498;2023-02-15T12:33:50;6.80;94.30
1988;DHT22;12775;46.994;15.498;2023-02-15T12:36:19;6.70;94.50
1988;DHT22;12775;46.994;15.498;2023-02-15T12:39:04;6.60;94.60
1988;DHT22;12775;46.994;15.498;2023-02-15T12:41:30;6.60;94.20
1988;DHT22;12775;46.994;15.498;2023-02-15T12:44:18;6.60;94.70
1988;DHT22;12775;46.994;15.498;2023-02-15T12:47:01;6.50;94.60
1988;DHT22;12775;46.994;15.498;2023-02-15T12:49:29;6.60;95.20
1988;DHT22;12775;46.994;15.498;2023-02-15T12:51:56;6.50;94.50
1988;DHT22;12775;46.994;15.498;2023-02-15T12:54:38;6.60;95.10
1988;DHT22;12775;46.994;15.498;2023-02-15T12:57:17;6.60;95.10
1988;DHT22;12775;46.994;15.498;2023-02-15T12:59:52;6.60;94.50
1988;DHT22;12775;46.994;15.498;2023-02-15T13:02:21;6.60;94.70
1988;DHT22;12775;46.994;15.498;2023-02-15T13:04:48;6.40;94.70
1988;DHT22;12775;46.994;15.498;2023-02-15T13:07:15;6.70;95.50
1988;DHT22;12775;46.994;15.498;2023-02-15T13:09:42;6.80;95.10
1988;DHT22;12775;46.994;15.498;2023-02-15T13:14:45;6.60;94.60
1988;DHT22;12775;46.994;15.498;2023-02-15T13:17:13;6.50;94.50
1988;DHT22;12775;46.994;15.498;2023-02-15T13:19:41;6.60;94.80
1988;DHT22;12775;46.994;15.498;2023-02-15T13:22:10;6.30;94.70
1988;DHT22;12775;46.994;15.498;2023-02-15T13:24:35;6.30;94.70
1988;DHT22;12775;46.994;15.498;2023-02-15T13:27:01;6.10;94.80
1988;DHT22;12775;46.994;15.498;2023-02-15T13:29:28;6.00;94.80
1988;DHT22;12775;46.994;15.498;2023-02-15T13:31:54;6.20;94.80
1988;DHT22;12775;46.994;15.498;2023-02-15T13:34:25;6.20;94.70
1988;DHT22;12775;46.994;15.498;2023-02-15T13:39:40;6.30;94.40
1988;DHT22;12775;46.994;15.498;2023-02-15T13:42:17;6.40;94.40
1988;DHT22;12775;46.994;15.498;2023-02-15T13:45:09;6.30;94.10
1988;DHT22;12775;46.994;15.498;2023-02-15T13:47:45;6.30;94.50
1988;DHT22;12775;46.994;15.498;2023-02-15T13:50:35;6.20;94.50
1988;DHT22;12775;46.994;15.498;2023-02-15T13:53:42;6.10;94.70
1988;DHT22;12775;46.994;15.498;2023-02-15T13:55:52;6.20;94.90
1988;DHT22;12775;46.994;15.498;2023-02-15T13:58:46;6.30;94.90
1988;DHT22;12775;46.994;15.498;2023-02-15T14:01:09;6.40;94.70
1988;DHT22;12775;46.994;15.498;2023-02-15T14:03:50;6.30;94.60
1988;DHT22;12775;46.994;15.498;2023-02-15T14:06:19;6.30;94.60
1988;DHT22;12775;46.994;15.498;2023-02-15T14:11:20;6.40;94.90
1988;DHT22;12775;46.994;15.498;2023-02-15T14:13:50;6.20;94.60
1988;DHT22;12775;46.994;15.498;2023-02-15T14:16:19;6.00;95.10
1988;DHT22;12775;46.994;15.498;2023-02-15T14:18:48;6.00;95.10
1988;DHT22;12775;46.994;15.498;2023-02-15T14:21:30;5.90;95.60
1988;DHT22;12775;46.994;15.498;2023-02-15T14:29:51;5.70;96.00
1988;DHT22;12775;46.994;15.498;2023-02-15T14:32:41;5.70;96.10
1988;DHT22;12775;46.994;15.498;2023-02-15T14:35:13;5.60;96.10
1988;DHT22;12775;46.994;15.498;2023-02-15T14:37:39;5.70;96.30
1988;DHT22;12775;46.994;15.498;2023-02-15T14:40:06;5.60;96.30
1988;DHT22;12775;46.994;15.498;2023-02-15T14:42:42;5.40;96.80
1988;DHT22;12775;46.994;15.498;2023-02-15T14:48:09;5.40;96.90
1988;DHT22;12775;46.994;15.498;2023-02-15T14:50:41;5.50;96.50
1988;DHT22;12775;46.994;15.498;2023-02-15T14:53:16;5.60;96.40
1988;DHT22;12775;46.994;15.498;2023-02-15T14:55:42;5.40;96.60
1988;DHT22;12775;46.994;15.498;2023-02-15T14:58:11;5.60;96.40
1988;DHT22;12775;46.994;15.498;2023-02-15T15:00:38;5.80;96.20
1988;DHT22;12775;46.994;15.498;2023-02-15T15:03:12;5.90;95.90
1988;DHT22;12775;46.994;15.498;2023-02-15T15:05:46;6.00;95.70
1988;DHT22;12775;46.994;15.498;2023-02-15T15:08:19;6.10;95.60
1988;DHT22;12775;46.994;15.498;2023-02-15T15:10:38;6.20;95.50
1988;DHT22;12775;46.994;15.498;2023-02-15T15:15:47;6.30;94.80
1988;DHT22;12775;46.994;15.498;2023-02-15T15:21:06;6.20;94.70
1988;DHT22;12775;46.994;15.498;2023-02-15T15:23:40;5.90;95.20
1988;DHT22;12775;46.994;15.498;2023-02-15T15:26:21;5.80;95.40
1988;DHT22;12775;46.994;15.498;2023-02-15T15:28:53;5.80;95.50
1988;DHT22;12775;46.994;15.498;2023-02-15T15:31:38;5.90;95.40
1988;DHT22;12775;46.994;15.498;2023-02-15T15:34:11;6.00;95.20
1988;DHT22;12775;46.994;15.498;2023-02-15T15:42:03;6.10;94.80
1988;DHT22;12775;46.994;15.498;2023-02-15T15:44:47;6.10;94.80
1988;DHT22;12775;46.994;15.498;2023-02-15T15:47:23;6.00;94.70
1988;DHT22;12775;46.994;15.498;2023-02-15T15:49:47;6.00;94.70
1988;DHT22;12775;46.994;15.498;2023-02-15T15:52:17;6.00;94.50
1988;DHT22;12775;46.994;15.498;2023-02-15T15:54:42;6.00;94.50
1988;DHT22;12775;46.994;15.498;2023-02-15T15:57:16;6.10;94.40
1988;DHT22;12775;46.994;15.498;2023-02-15T15:59:43;6.00;94.20
1988;DHT22;12775;46.994;15.498;2023-02-15T16:02:11;6.00;94.10
1988;DHT22;12775;46.994;15.498;2023-02-15T16:04:35;6.00;94.10
1988;DHT22;12775;46.994;15.498;2023-02-15T16:07:23;5.90;94.20
1988;DHT22;12775;46.994;15.498;2023-02-15T16:09:58;5.80;94.20
1988;DHT22;12775;46.994;15.498;2023-02-15T16:12:23;5.80;94.20
1988;DHT22;12775;46.994;15.498;2023-02-15T16:14:51;5.70;94.20
1988;DHT22;12775;46.994;15.498;2023-02-15T16:17:22;5.70;94.00
1988;DHT22;12775;46.994;15.498;2023-02-15T16:19:48;5.60;94.10
1988;DHT22;12775;46.994;15.498;2023-02-15T16:22:16;5.70;94.20
1988;DHT22;12775;46.994;15.498;2023-02-15T16:24:52;5.70;94.10
1988;DHT22;12775;46.994;15.498;2023-02-15T16:27:24;5.70;93.90
1988;DHT22;12775;46.994;15.498;2023-02-15T16:29:47;5.70;93.90
1988;DHT22;12775;46.994;15.498;2023-02-15T16:32:21;5.70;93.20
1988;DHT22;12775;46.994;15.498;2023-02-15T16:34:52;5.70;93.20
1988;DHT22;12775;46.994;15.498;2023-02-15T16:37:20;5.60;93.20
1988;DHT22;12775;46.994;15.498;2023-02-15T16:39:46;5.60;93.10
1988;DHT22;12775;46.994;15.498;2023-02-15T16:42:14;5.60;92.70
1988;DHT22;12775;46.994;15.498;2023-02-15T16:44:41;5.60;92.30
1988;DHT22;12775;46.994;15.498;2023-02-15T16:47:21;5.50;92.60
1988;DHT22;12775;46.994;15.498;2023-02-15T16:49:47;5.40;92.60
1988;DHT22;12775;46.994;15.498;2023-02-15T16:52:15;5.40;92.80